createdAt,value
2022-10-18T00:00:55.125Z,89.07
2022-10-18T00:03:23.291Z,88.74
2022-10-18T00:05:52.823Z,88.94
2022-10-18T00:08:21.466Z,89.07
2022-10-18T00:10:49.995Z,89.05
2022-10-18T00:13:18.483Z,88.85
2022-10-18T00:15:50.828Z,89.16
2022-10-18T00:18:19.426Z,88.89
2022-10-18T00:20:47.599Z,89.14
2022-10-18T00:23:16.978Z,89.00
2022-10-18T00:25:44.975Z,89.22
2022-10-18T00:28:12.986Z,89.32
2022-10-18T00:30:41.079Z,89.02
2022-10-18T00:33:09.370Z,88.96
2022-10-18T00:35:37.411Z,89.17
2022-10-18T00:38:05.406Z,88.92
2022-10-18T00:40:34.795Z,89.12
2022-10-18T00:43:02.891Z,88.96
2022-10-18T00:45:31.105Z,88.98
2022-10-18T00:48:02.094Z,89.04
2022-10-18T00:50:33.161Z,89.22
2022-10-18T00:53:03.549Z,88.84
2022-10-18T00:55:35.073Z,89.02
2022-10-18T00:58:03.554Z,88.89
2022-10-18T01:00:31.902Z,88.83
2022-10-18T01:03:00.527Z,88.95
2022-10-18T01:05:28.788Z,89.12
2022-10-18T01:08:15.862Z,89.00
2022-10-18T01:11:01.700Z,89.18
2022-10-18T01:13:49.027Z,89.16
2022-10-18T01:16:22.210Z,89.17
2022-10-18T01:18:54.123Z,89.35
2022-10-18T01:21:35.159Z,89.09
2022-10-18T01:24:36.402Z,89.20
2022-10-18T01:27:25.031Z,89.49
2022-10-18T01:30:04.757Z,89.38
2022-10-18T01:32:37.681Z,88.98
2022-10-18T01:35:12.214Z,89.18
2022-10-18T01:37:41.023Z,89.13
2022-10-18T01:40:11.151Z,89.09
2022-10-18T01:42:39.137Z,89.03
2022-10-18T01:45:09.351Z,89.00
2022-10-18T01:47:38.766Z,89.13
2022-10-18T01:50:08.087Z,89.19
2022-10-18T01:52:36.127Z,89.22
2022-10-18T01:55:04.526Z,88.99
2022-10-18T01:57:37.909Z,89.11
2022-10-18T02:00:09.484Z,89.05
2022-10-18T02:02:45.145Z,88.83
2022-10-18T02:05:19.157Z,88.96
2022-10-18T02:08:00.218Z,88.97
2022-10-18T02:10:42.439Z,89.31
2022-10-18T02:13:11.567Z,89.55
2022-10-18T02:15:40.780Z,89.67
2022-10-18T02:18:14.298Z,89.35
2022-10-18T02:20:42.989Z,89.30
2022-10-18T02:23:11.418Z,89.66
2022-10-18T02:25:39.927Z,89.24
2022-10-18T02:28:08.084Z,89.45
2022-10-18T02:30:40.994Z,89.45
2022-10-18T02:33:14.105Z,89.71
2022-10-18T02:35:45.742Z,89.44
2022-10-18T02:38:15.321Z,89.61
2022-10-18T02:40:43.471Z,89.55
2022-10-18T02:43:11.554Z,89.49
2022-10-18T02:45:39.656Z,89.55
2022-10-18T02:48:07.731Z,89.47
2022-10-18T02:50:37.098Z,89.67
2022-10-18T02:53:05.348Z,89.65
2022-10-18T02:55:33.353Z,89.68
2022-10-18T02:58:01.422Z,89.74
2022-10-18T03:00:29.467Z,89.39
2022-10-18T03:02:57.519Z,89.42
2022-10-18T03:05:25.527Z,89.69
2022-10-18T03:07:57.293Z,89.72
2022-10-18T03:10:25.320Z,89.59
2022-10-18T03:12:53.311Z,89.69
2022-10-18T03:15:21.333Z,89.77
2022-10-18T03:17:49.340Z,89.85
2022-10-18T03:20:17.340Z,89.58
2022-10-18T03:22:45.357Z,89.44
2022-10-18T03:25:14.837Z,89.34
2022-10-18T03:27:42.863Z,89.63
2022-10-18T03:30:13.424Z,89.46
2022-10-18T03:32:41.752Z,89.51
2022-10-18T03:35:10.691Z,89.76
2022-10-18T03:37:38.797Z,89.60
2022-10-18T03:40:08.603Z,89.85
2022-10-18T03:42:37.988Z,89.66
2022-10-18T03:45:06.824Z,89.77
2022-10-18T03:47:34.924Z,90.04
2022-10-18T03:50:02.997Z,89.61
2022-10-18T03:52:31.440Z,89.98
2022-10-18T03:54:59.722Z,89.80
2022-10-18T03:57:27.704Z,90.00
2022-10-18T03:59:57.077Z,89.86
2022-10-18T04:02:25.236Z,89.85
2022-10-18T04:04:53.458Z,90.02
2022-10-18T04:07:21.418Z,89.84
2022-10-18T04:09:49.428Z,89.76
2022-10-18T04:12:17.433Z,89.52
2022-10-18T04:14:45.461Z,89.70
2022-10-18T04:17:14.859Z,89.57
2022-10-18T04:19:42.851Z,89.53
2022-10-18T04:22:12.069Z,89.76
2022-10-18T04:24:40.498Z,89.88
2022-10-18T04:27:09.201Z,89.50
2022-10-18T04:29:37.182Z,89.70
2022-10-18T04:32:05.388Z,89.50
2022-10-18T04:34:34.798Z,89.45
2022-10-18T04:37:02.790Z,89.75
2022-10-18T04:39:30.931Z,89.55
2022-10-18T04:41:58.919Z,89.53
2022-10-18T04:44:27.000Z,90.04
2022-10-18T04:46:54.981Z,90.00
2022-10-18T04:49:23.034Z,89.67
2022-10-18T04:51:52.403Z,89.87
2022-10-18T04:54:21.893Z,90.09
2022-10-18T04:56:51.951Z,89.73
2022-10-18T04:59:20.186Z,89.94
2022-10-18T05:01:48.319Z,90.07
2022-10-18T05:04:16.449Z,90.06
2022-10-18T05:06:44.517Z,89.81
2022-10-18T05:09:13.963Z,89.98
2022-10-18T05:11:41.963Z,90.04
2022-10-18T05:14:10.189Z,90.17
2022-10-18T05:16:38.289Z,90.11
2022-10-18T05:19:06.777Z,89.87
2022-10-18T05:21:35.016Z,89.88
2022-10-18T05:24:03.027Z,89.82
2022-10-18T05:26:32.362Z,89.94
2022-10-18T05:29:00.576Z,90.05
2022-10-18T05:31:28.661Z,90.17
2022-10-18T05:33:57.109Z,90.06
2022-10-18T05:36:26.076Z,89.78
2022-10-18T05:38:54.126Z,89.90
2022-10-18T05:41:22.149Z,89.96
2022-10-18T05:43:51.536Z,89.74
2022-10-18T05:46:19.504Z,89.87
2022-10-18T05:48:51.145Z,89.69
2022-10-18T05:51:19.565Z,90.04
2022-10-18T05:53:47.577Z,90.01
2022-10-18T05:56:15.641Z,90.13
2022-10-18T05:58:43.882Z,89.84
2022-10-18T06:01:13.279Z,89.99
2022-10-18T06:03:41.253Z,89.89
2022-10-18T06:06:10.467Z,89.72
2022-10-18T06:08:39.557Z,89.93
2022-10-18T06:11:08.424Z,89.96
2022-10-18T06:13:36.430Z,89.84
2022-10-18T06:16:04.494Z,89.82
2022-10-18T06:18:33.884Z,90.08
2022-10-18T06:21:01.901Z,89.85
2022-10-18T06:23:30.846Z,90.19
2022-10-18T06:26:02.616Z,90.15
2022-10-18T06:28:31.235Z,90.21
2022-10-18T06:30:59.330Z,89.84
2022-10-18T06:33:27.372Z,90.09
2022-10-18T06:35:58.152Z,90.11
2022-10-18T06:38:26.579Z,90.20
2022-10-18T06:40:55.238Z,89.75
2022-10-18T06:43:23.700Z,89.77
2022-10-18T06:45:52.279Z,89.85
2022-10-18T06:48:21.095Z,89.99
2022-10-18T06:50:53.899Z,89.87
2022-10-18T06:53:23.277Z,89.73
2022-10-18T06:55:51.287Z,89.76
2022-10-18T06:58:19.639Z,90.04
2022-10-18T07:00:47.967Z,89.68
2022-10-18T07:03:15.991Z,89.73
2022-10-18T07:05:44.098Z,89.84
2022-10-18T07:08:12.127Z,89.56
2022-10-18T07:10:41.551Z,89.47
2022-10-18T07:16:02.093Z,89.86
2022-10-18T07:18:36.436Z,89.80
2022-10-18T07:21:05.303Z,89.89
2022-10-18T07:23:34.005Z,89.92
2022-10-18T07:26:04.557Z,89.80
2022-10-18T07:28:32.587Z,89.90
2022-10-18T07:31:06.174Z,89.75
2022-10-18T07:33:34.396Z,89.44
2022-10-18T07:36:03.124Z,89.55
2022-10-18T07:38:31.255Z,89.63
2022-10-18T07:40:59.665Z,89.48
2022-10-18T07:43:29.118Z,89.31
2022-10-18T07:45:58.690Z,89.63
2022-10-18T07:48:27.145Z,89.14
2022-10-18T07:50:55.601Z,89.55
2022-10-18T07:53:23.627Z,89.30
2022-10-18T07:55:51.636Z,89.31
2022-10-18T07:58:19.664Z,89.20
2022-10-18T08:00:49.016Z,88.98
2022-10-18T08:03:17.035Z,89.04
2022-10-18T08:05:45.049Z,89.28
2022-10-18T08:08:13.057Z,89.09
2022-10-18T08:10:41.051Z,89.45
2022-10-18T08:13:09.093Z,89.42
2022-10-18T08:15:37.106Z,89.43
2022-10-18T08:18:06.457Z,89.32
2022-10-18T08:20:36.221Z,89.45
2022-10-18T08:23:04.830Z,89.33
2022-10-18T08:25:32.923Z,89.14
2022-10-18T08:28:01.626Z,89.11
2022-10-18T08:30:29.784Z,89.34
2022-10-18T08:32:57.796Z,89.10
2022-10-18T08:35:27.187Z,89.39
2022-10-18T08:37:55.181Z,89.58
2022-10-18T08:40:23.372Z,89.26
2022-10-18T08:43:01.777Z,89.19
2022-10-18T08:45:41.537Z,89.34
2022-10-18T08:48:21.857Z,89.15
2022-10-18T08:50:52.818Z,89.32
2022-10-18T08:53:25.493Z,89.54
2022-10-18T08:55:56.177Z,89.82
2022-10-18T08:58:26.685Z,90.07
2022-10-18T09:01:09.737Z,90.14
2022-10-18T09:03:55.565Z,89.39
2022-10-18T09:06:31.293Z,89.27
2022-10-18T09:09:34.029Z,89.27
2022-10-18T09:14:50.180Z,88.29
2022-10-18T09:17:28.899Z,88.48
2022-10-18T09:20:07.364Z,88.48
2022-10-18T09:22:47.925Z,88.62
2022-10-18T09:25:19.986Z,89.12
2022-10-18T09:27:53.571Z,89.34
2022-10-18T09:30:40.349Z,89.07
2022-10-18T09:33:21.474Z,88.71
2022-10-18T09:35:53.116Z,87.76
2022-10-18T09:40:57.139Z,86.99
2022-10-18T09:43:27.517Z,87.13
2022-10-18T09:45:56.595Z,86.26
2022-10-18T09:48:28.987Z,85.76
2022-10-18T09:51:01.707Z,85.64
2022-10-18T09:53:37.899Z,85.68
2022-10-18T09:56:07.494Z,85.99
2022-10-18T09:58:42.971Z,86.61
2022-10-18T10:01:14.435Z,86.80
2022-10-18T10:03:46.041Z,86.55
2022-10-18T10:06:28.452Z,86.51
2022-10-18T10:09:02.663Z,86.39
2022-10-18T10:11:36.865Z,85.89
2022-10-18T10:16:48.164Z,85.14
2022-10-18T10:19:21.345Z,85.25
2022-10-18T10:21:50.886Z,85.50
2022-10-18T10:24:31.283Z,86.05
2022-10-18T10:27:01.287Z,86.19
2022-10-18T10:29:51.556Z,86.32
2022-10-18T10:32:21.908Z,85.65
2022-10-18T10:34:50.266Z,85.60
2022-10-18T10:37:30.697Z,85.74
2022-10-18T10:40:19.254Z,85.86
2022-10-18T10:43:18.204Z,85.59
2022-10-18T10:46:03.856Z,84.72
2022-10-18T10:48:34.463Z,85.09
2022-10-18T10:51:08.075Z,84.70
2022-10-18T10:53:45.477Z,84.84
2022-10-18T10:56:23.293Z,84.84
2022-10-18T10:58:52.117Z,84.68
2022-10-18T11:01:29.466Z,84.67
2022-10-18T11:04:00.193Z,84.57
2022-10-18T11:06:51.960Z,84.45
2022-10-18T11:09:42.955Z,84.40
2022-10-18T11:12:22.202Z,83.66
2022-10-18T11:14:55.613Z,83.81
2022-10-18T11:17:28.232Z,83.70
2022-10-18T11:20:18.826Z,83.84
2022-10-18T11:22:57.223Z,83.68
2022-10-18T11:25:30.064Z,83.55
2022-10-18T11:28:05.485Z,83.24
2022-10-18T11:30:53.348Z,82.96
2022-10-18T11:33:50.098Z,82.80
2022-10-18T11:36:21.641Z,82.63
2022-10-18T11:38:57.096Z,82.82
2022-10-18T11:41:49.433Z,82.99
2022-10-18T11:44:23.659Z,83.27
2022-10-18T11:46:59.793Z,83.73
2022-10-18T11:49:54.938Z,83.86
2022-10-18T11:52:30.790Z,84.20
2022-10-18T11:55:31.916Z,84.16
2022-10-18T11:58:07.378Z,83.89
2022-10-18T12:00:45.717Z,84.14
2022-10-18T12:03:35.788Z,84.48
2022-10-18T12:06:07.542Z,84.44
2022-10-18T12:08:39.018Z,84.29
2022-10-18T12:11:14.084Z,84.47
2022-10-18T12:13:47.825Z,83.92
2022-10-18T12:16:33.465Z,84.40
2022-10-18T12:19:14.117Z,84.75
2022-10-18T12:21:43.463Z,85.05
2022-10-18T12:24:16.102Z,84.52
2022-10-18T12:26:45.060Z,84.38
2022-10-18T12:29:19.714Z,83.70
2022-10-18T12:31:51.063Z,83.22
2022-10-18T12:34:29.187Z,83.29
2022-10-18T12:37:24.323Z,83.40
2022-10-18T12:40:13.139Z,83.83
2022-10-18T12:42:44.121Z,83.76
2022-10-18T12:45:30.122Z,82.81
2022-10-18T12:48:02.346Z,83.01
2022-10-18T12:50:34.711Z,82.87
2022-10-18T12:53:15.294Z,82.79
2022-10-18T12:55:45.042Z,82.41
2022-10-18T12:58:28.067Z,82.25
2022-10-18T13:01:06.796Z,82.20
2022-10-18T13:04:00.561Z,82.11
2022-10-18T13:06:48.738Z,82.18
2022-10-18T13:09:22.247Z,82.07
2022-10-18T13:11:50.988Z,81.73
2022-10-18T13:15:12.452Z,82.17
2022-10-18T13:17:48.507Z,82.09
2022-10-18T13:20:27.290Z,82.03
2022-10-18T13:23:06.460Z,82.01
2022-10-18T13:25:47.117Z,82.20
2022-10-18T13:28:25.184Z,81.91
2022-10-18T13:30:56.624Z,82.33
2022-10-18T13:33:31.614Z,82.63
2022-10-18T13:36:01.869Z,82.86
2022-10-18T13:38:37.920Z,82.14
2022-10-18T13:41:07.716Z,82.15
2022-10-18T13:43:57.134Z,82.02
2022-10-18T13:46:45.623Z,81.45
2022-10-18T13:49:31.059Z,81.84
2022-10-18T13:52:07.620Z,80.98
2022-10-18T13:54:50.200Z,80.91
2022-10-18T13:57:30.653Z,81.06
2022-10-18T14:00:31.259Z,81.25
2022-10-18T14:03:44.161Z,81.14
2022-10-18T14:06:08.719Z,81.36
2022-10-18T14:08:41.354Z,81.16
2022-10-18T14:11:17.285Z,81.23
2022-10-18T14:13:48.152Z,81.14
2022-10-18T14:16:28.055Z,81.36
2022-10-18T14:19:01.968Z,81.23
2022-10-18T14:21:35.987Z,81.73
2022-10-18T14:24:11.520Z,81.34
2022-10-18T14:29:18.753Z,81.57
2022-10-18T14:31:53.696Z,81.49
2022-10-18T14:34:22.230Z,81.62
2022-10-18T14:36:50.876Z,82.02
2022-10-18T14:39:23.279Z,81.48
2022-10-18T14:41:53.256Z,81.45
2022-10-18T14:44:25.727Z,81.53
2022-10-18T14:46:59.956Z,81.71
2022-10-18T14:49:28.259Z,81.24
2022-10-18T14:51:58.951Z,81.58
2022-10-18T14:54:32.076Z,81.50
2022-10-18T14:57:01.137Z,81.59
2022-10-18T14:59:30.644Z,81.57
2022-10-18T15:02:01.297Z,81.67
2022-10-18T15:04:33.038Z,81.28
2022-10-18T15:07:03.031Z,81.40
2022-10-18T15:09:34.028Z,81.21
2022-10-18T15:12:03.140Z,81.76
2022-10-18T15:14:31.236Z,81.29
2022-10-18T15:17:02.707Z,81.84
2022-10-18T15:19:33.894Z,81.84
2022-10-18T15:22:30.165Z,81.82
2022-10-18T15:25:12.246Z,81.54
2022-10-18T15:30:20.719Z,81.74
2022-10-18T15:32:52.006Z,81.83
2022-10-18T15:35:26.116Z,81.53
2022-10-18T15:37:55.827Z,81.52
2022-10-18T15:40:34.871Z,81.75
2022-10-18T15:43:04.110Z,81.11
2022-10-18T15:45:38.354Z,81.40
2022-10-18T15:48:23.477Z,81.59
2022-10-18T15:50:52.601Z,81.64
2022-10-18T15:53:26.635Z,81.99
2022-10-18T15:55:58.155Z,81.55
2022-10-18T15:58:28.382Z,81.76
2022-10-18T16:00:59.091Z,81.63
2022-10-18T16:03:27.791Z,81.90
2022-10-18T16:06:00.549Z,82.00
2022-10-18T16:08:30.693Z,81.76
2022-10-18T16:11:00.686Z,82.03
2022-10-18T16:13:28.842Z,81.88
2022-10-18T16:15:56.865Z,81.83
2022-10-18T16:18:25.353Z,81.61
2022-10-18T16:20:53.461Z,81.68
2022-10-18T16:23:22.912Z,81.75
2022-10-18T16:25:51.367Z,82.14
2022-10-18T16:28:22.418Z,82.02
2022-10-18T16:30:55.764Z,81.93
2022-10-18T16:33:24.387Z,82.03
2022-10-18T16:35:52.564Z,82.31
2022-10-18T16:38:32.669Z,82.26
2022-10-18T16:41:03.984Z,82.48
2022-10-18T16:43:34.642Z,82.48
2022-10-18T16:46:03.056Z,82.23
2022-10-18T16:48:31.503Z,82.58
2022-10-18T16:50:59.841Z,82.40
2022-10-18T16:53:28.159Z,82.61
2022-10-18T16:55:58.364Z,82.20
2022-10-18T16:58:28.079Z,82.40
2022-10-18T17:00:58.193Z,82.36
2022-10-18T17:03:26.852Z,82.56
2022-10-18T17:05:56.247Z,82.39
2022-10-18T17:08:26.398Z,82.54
2022-10-18T17:10:57.503Z,82.33
2022-10-18T17:13:27.024Z,82.44
2022-10-18T17:15:55.262Z,82.36
2022-10-18T17:18:27.580Z,82.62
2022-10-18T17:20:56.554Z,82.58
2022-10-18T17:23:24.583Z,82.80
2022-10-18T17:26:06.716Z,82.95
2022-10-18T17:28:41.875Z,82.72
2022-10-18T17:31:10.025Z,82.98
2022-10-18T17:33:39.376Z,82.94
2022-10-18T17:36:07.952Z,82.90
2022-10-18T17:38:36.113Z,82.79
2022-10-18T17:41:07.576Z,82.64
2022-10-18T17:43:37.350Z,82.80
2022-10-18T17:46:05.759Z,83.20
2022-10-18T17:48:33.830Z,83.04
2022-10-18T17:51:07.904Z,83.18
2022-10-18T17:53:36.196Z,82.91
2022-10-18T17:56:04.925Z,82.95
2022-10-18T17:58:33.337Z,83.09
2022-10-18T18:01:09.875Z,83.10
2022-10-18T18:03:38.078Z,83.19
2022-10-18T18:06:18.581Z,83.25
2022-10-18T18:08:47.010Z,83.11
2022-10-18T18:11:15.285Z,83.53
2022-10-18T18:13:43.381Z,83.56
2022-10-18T18:16:16.606Z,83.37
2022-10-18T18:18:44.906Z,83.57
2022-10-18T18:21:13.041Z,83.16
2022-10-18T18:23:42.447Z,83.46
2022-10-18T18:26:10.593Z,83.59
2022-10-18T18:28:38.714Z,83.27
2022-10-18T18:31:08.032Z,83.40
2022-10-18T18:33:36.445Z,83.35
2022-10-18T18:36:06.680Z,83.29
2022-10-18T18:38:36.037Z,83.59
2022-10-18T18:41:10.006Z,83.75
2022-10-18T18:43:39.109Z,83.48
2022-10-18T18:46:07.290Z,83.61
2022-10-18T18:48:36.481Z,83.51
2022-10-18T18:51:06.045Z,83.33
2022-10-18T18:53:34.089Z,83.37
2022-10-18T18:56:03.502Z,83.35
2022-10-18T18:58:33.129Z,83.20
2022-10-18T19:01:05.921Z,83.13
2022-10-18T19:03:34.107Z,83.09
2022-10-18T19:06:06.208Z,83.24
2022-10-18T19:08:36.434Z,83.53
2022-10-18T19:11:08.106Z,83.34
2022-10-18T19:13:38.710Z,83.25
2022-10-18T19:16:17.999Z,83.53
2022-10-18T19:18:54.437Z,83.29
2022-10-18T19:21:22.776Z,83.53
2022-10-18T19:23:50.897Z,83.48
2022-10-18T19:26:31.122Z,83.47
2022-10-18T19:29:06.333Z,83.51
2022-10-18T19:31:35.635Z,83.57
2022-10-18T19:34:05.071Z,83.16
2022-10-18T19:36:33.170Z,83.35
2022-10-18T19:39:01.592Z,83.17
2022-10-18T19:41:29.662Z,83.18
2022-10-18T19:43:58.179Z,83.10
2022-10-18T19:46:27.602Z,83.24
2022-10-18T19:48:55.593Z,83.37
2022-10-18T19:51:27.076Z,83.17
2022-10-18T19:53:56.464Z,83.36
2022-10-18T19:56:25.521Z,83.12
2022-10-18T19:58:53.619Z,83.29
2022-10-18T20:01:22.256Z,83.06
2022-10-18T20:03:51.865Z,83.17
2022-10-18T20:06:19.904Z,83.11
2022-10-18T20:08:48.165Z,83.36
2022-10-18T20:11:17.925Z,83.69
2022-10-18T20:13:45.960Z,83.30
2022-10-18T20:16:15.417Z,83.57
2022-10-18T20:18:44.172Z,83.51
2022-10-18T20:21:15.469Z,83.89
2022-10-18T20:23:44.803Z,83.99
2022-10-18T20:26:18.152Z,83.77
2022-10-18T20:28:49.170Z,83.94
2022-10-18T20:31:19.081Z,84.24
2022-10-18T20:33:47.613Z,84.16
2022-10-18T20:36:18.426Z,83.99
2022-10-18T20:38:47.756Z,84.32
2022-10-18T20:41:17.682Z,84.45
2022-10-18T20:43:46.041Z,84.52
2022-10-18T20:46:14.067Z,84.93
2022-10-18T20:48:42.045Z,84.84
2022-10-18T20:51:12.704Z,84.70
2022-10-18T20:53:42.177Z,84.61
2022-10-18T20:56:12.191Z,84.69
2022-10-18T20:58:41.085Z,84.65
2022-10-18T21:01:09.759Z,85.08
2022-10-18T21:03:39.052Z,85.14
2022-10-18T21:06:11.770Z,85.06
2022-10-18T21:08:40.152Z,84.81
2022-10-18T21:11:09.942Z,85.23
2022-10-18T21:13:38.271Z,85.02
2022-10-18T21:16:06.934Z,84.85
2022-10-18T21:18:36.350Z,84.89
2022-10-18T21:21:08.921Z,85.02
2022-10-18T21:23:36.978Z,84.77
2022-10-18T21:26:05.512Z,84.80
2022-10-18T21:28:35.423Z,84.91
2022-10-18T21:31:12.273Z,84.87
2022-10-18T21:33:40.362Z,84.93
2022-10-18T21:36:08.941Z,84.97
2022-10-18T21:38:37.069Z,85.33
2022-10-18T21:41:09.378Z,85.27
2022-10-18T21:43:40.894Z,85.42
2022-10-18T21:46:10.064Z,85.50
2022-10-18T21:48:38.974Z,85.49
2022-10-18T21:51:08.499Z,85.47
2022-10-18T21:53:36.935Z,85.61
2022-10-18T21:56:06.804Z,85.64
2022-10-18T21:58:35.425Z,85.54
2022-10-18T22:01:08.297Z,85.84
2022-10-18T22:03:36.401Z,85.57
2022-10-18T22:06:07.629Z,85.52
2022-10-18T22:08:35.846Z,85.36
2022-10-18T22:11:04.342Z,85.37
2022-10-18T22:13:32.586Z,85.36
2022-10-18T22:16:01.802Z,85.31
2022-10-18T22:18:31.743Z,85.51
2022-10-18T22:21:01.454Z,85.86
2022-10-18T22:23:32.927Z,85.61
2022-10-18T22:26:04.970Z,85.58
2022-10-18T22:28:33.059Z,85.55
2022-10-18T22:31:01.079Z,85.67
2022-10-18T22:33:29.104Z,85.74
2022-10-18T22:35:58.538Z,85.41
2022-10-18T22:38:26.513Z,85.57
2022-10-18T22:40:54.509Z,85.20
2022-10-18T22:43:22.486Z,85.74
2022-10-18T22:45:50.476Z,85.34
2022-10-18T22:48:18.444Z,85.55
2022-10-18T22:50:46.401Z,85.53
2022-10-18T22:53:15.747Z,85.87
2022-10-18T22:55:43.730Z,85.81
2022-10-18T22:58:11.755Z,85.89
2022-10-18T23:00:39.786Z,85.88
2022-10-18T23:03:07.795Z,86.15
2022-10-18T23:05:38.690Z,86.17
2022-10-18T23:08:07.234Z,85.95
2022-10-18T23:10:37.733Z,85.91
2022-10-18T23:13:05.975Z,86.01
2022-10-18T23:15:34.181Z,85.92
2022-10-18T23:18:02.198Z,86.20
2022-10-18T23:20:30.186Z,86.13
2022-10-18T23:22:58.192Z,86.07
2022-10-18T23:25:27.198Z,86.03
2022-10-18T23:27:57.616Z,86.15
2022-10-18T23:30:25.591Z,86.10
2022-10-18T23:32:53.581Z,85.77
2022-10-18T23:35:21.546Z,85.91
2022-10-18T23:37:49.528Z,86.15
2022-10-18T23:40:17.584Z,85.77
2022-10-18T23:42:45.588Z,86.09
2022-10-18T23:45:14.905Z,85.79
2022-10-18T23:47:42.902Z,85.77
2022-10-18T23:50:11.305Z,85.97
2022-10-18T23:52:39.329Z,85.74
2022-10-18T23:55:08.709Z,85.97
2022-10-18T23:57:36.760Z,86.22
